createdAt,value
2022-12-15T00:02:17.924Z,96710.00
2022-12-15T00:05:03.268Z,96712.00
2022-12-15T00:07:49.699Z,96713.00
2022-12-15T00:10:35.301Z,96721.00
2022-12-15T00:13:20.468Z,96725.00
2022-12-15T00:16:05.690Z,96720.00
2022-12-15T00:18:51.110Z,96724.00
2022-12-15T00:21:36.355Z,96723.00
2022-12-15T00:24:23.636Z,96730.00
2022-12-15T00:27:08.743Z,96736.00
2022-12-15T00:29:53.912Z,96731.00
2022-12-15T00:32:38.998Z,96741.00
2022-12-15T00:35:24.829Z,96745.00
2022-12-15T00:38:10.050Z,96751.00
2022-12-15T00:40:39.125Z,96753.00
2022-12-15T00:43:06.870Z,96766.00
2022-12-15T00:45:48.680Z,96774.00
2022-12-15T00:48:16.366Z,96765.00
2022-12-15T00:51:02.458Z,96770.00
2022-12-15T00:53:47.599Z,96775.00
2022-12-15T00:56:34.016Z,96762.00
2022-12-15T00:59:19.190Z,96767.00
2022-12-15T01:02:04.756Z,96780.00
2022-12-15T01:04:50.268Z,96782.00
2022-12-15T01:07:35.473Z,96782.00
2022-12-15T01:10:20.640Z,96781.00
2022-12-15T01:13:07.066Z,96778.00
2022-12-15T01:15:54.872Z,96784.00
2022-12-15T01:18:40.198Z,96796.00
2022-12-15T01:21:09.897Z,96809.00
2022-12-15T01:23:38.400Z,96810.00
2022-12-15T01:26:07.495Z,96816.00
2022-12-15T01:28:37.230Z,96823.00
2022-12-15T01:31:11.547Z,96804.00
2022-12-15T01:33:39.701Z,96811.00
2022-12-15T01:36:07.652Z,96825.00
2022-12-15T01:38:35.349Z,96818.00
2022-12-15T01:41:04.883Z,96818.00
2022-12-15T01:43:35.227Z,96830.00
2022-12-15T01:46:06.892Z,96821.00
2022-12-15T01:48:42.320Z,96805.00
2022-12-15T01:51:15.547Z,96810.00
2022-12-15T01:53:52.262Z,96818.00
2022-12-15T01:56:20.913Z,96839.00
2022-12-15T01:58:52.181Z,96850.00
2022-12-15T02:01:21.478Z,96849.00
2022-12-15T02:03:49.632Z,96850.00
2022-12-15T02:06:21.609Z,96861.00
2022-12-15T02:08:51.973Z,96856.00
2022-12-15T02:11:57.851Z,96854.00
2022-12-15T02:14:40.889Z,96854.00
2022-12-15T02:17:20.149Z,96853.00
2022-12-15T02:20:23.276Z,96860.00
2022-12-15T02:23:27.655Z,96860.00
2022-12-15T02:26:14.263Z,96855.00
2022-12-15T02:28:53.598Z,96868.00
2022-12-15T02:31:47.024Z,96866.00
2022-12-15T02:34:24.342Z,96858.00
2022-12-15T02:36:56.940Z,96859.00
2022-12-15T02:39:24.944Z,96869.00
2022-12-15T02:41:53.061Z,96876.00
2022-12-15T02:44:26.328Z,96875.00
2022-12-15T02:47:14.855Z,96882.00
2022-12-15T02:49:50.171Z,96884.00
2022-12-15T02:52:32.256Z,96885.00
2022-12-15T02:55:12.425Z,96882.00
2022-12-15T02:57:50.815Z,96880.00
2022-12-15T03:00:19.178Z,96871.00
2022-12-15T03:02:51.236Z,96875.00
2022-12-15T03:05:20.540Z,96879.00
2022-12-15T03:07:51.077Z,96889.00
2022-12-15T03:10:19.468Z,96896.00
2022-12-15T03:12:47.148Z,96890.00
2022-12-15T03:15:15.096Z,96886.00
2022-12-15T03:17:42.785Z,96886.00
2022-12-15T03:20:12.706Z,96894.00
2022-12-15T03:22:40.759Z,96883.00
2022-12-15T03:25:09.224Z,96886.00
2022-12-15T03:27:37.808Z,96899.00
2022-12-15T03:30:06.838Z,96904.00
2022-12-15T03:32:34.480Z,96911.00
2022-12-15T03:35:02.382Z,96909.00
2022-12-15T03:37:31.424Z,96899.00
2022-12-15T03:39:59.198Z,96910.00
2022-12-15T03:42:40.805Z,96911.00
2022-12-15T03:45:09.267Z,96912.00
2022-12-15T03:47:36.993Z,96910.00
2022-12-15T03:50:05.398Z,96907.00
2022-12-15T03:52:34.419Z,96904.00
2022-12-15T03:55:02.135Z,96897.00
2022-12-15T03:57:29.777Z,96900.00
2022-12-15T03:59:57.500Z,96913.00
2022-12-15T04:02:25.351Z,96913.00
2022-12-15T04:04:53.282Z,96905.00
2022-12-15T04:07:20.923Z,96903.00
2022-12-15T04:09:49.939Z,96908.00
2022-12-15T04:12:17.611Z,96919.00
2022-12-15T04:14:45.295Z,96903.00
2022-12-15T04:17:13.603Z,96914.00
2022-12-15T04:19:58.968Z,96927.00
2022-12-15T04:22:26.642Z,96942.00
2022-12-15T04:25:13.521Z,96938.00
2022-12-15T04:28:01.649Z,96958.00
2022-12-15T04:30:49.079Z,96954.00
2022-12-15T04:33:35.283Z,96944.00
2022-12-15T04:36:21.309Z,96954.00
2022-12-15T04:39:06.546Z,96957.00
2022-12-15T04:41:53.149Z,96949.00
2022-12-15T04:44:38.344Z,96953.00
2022-12-15T04:47:23.626Z,96944.00
2022-12-15T04:50:08.694Z,96945.00
2022-12-15T04:52:53.920Z,96939.00
2022-12-15T04:55:39.002Z,96947.00
2022-12-15T04:58:26.844Z,96949.00
2022-12-15T05:01:12.523Z,96953.00
2022-12-15T05:03:57.729Z,96971.00
2022-12-15T05:06:43.003Z,96961.00
2022-12-15T05:09:28.307Z,96961.00
2022-12-15T05:12:13.610Z,96968.00
2022-12-15T05:15:00.193Z,96973.00
2022-12-15T05:17:45.300Z,96965.00
2022-12-15T05:20:30.538Z,96967.00
2022-12-15T05:23:16.175Z,96975.00
2022-12-15T05:26:01.894Z,96974.00
2022-12-15T05:28:47.623Z,96975.00
2022-12-15T05:31:34.023Z,96975.00
2022-12-15T05:34:05.471Z,96983.00
2022-12-15T05:36:33.678Z,96985.00
2022-12-15T05:39:01.446Z,96989.00
2022-12-15T05:41:29.126Z,97008.00
2022-12-15T05:43:56.800Z,97017.00
2022-12-15T05:46:25.918Z,97017.00
2022-12-15T05:48:53.832Z,97003.00
2022-12-15T05:51:21.517Z,97007.00
2022-12-15T05:53:49.326Z,96998.00
2022-12-15T05:56:17.217Z,97007.00
2022-12-15T05:58:45.745Z,97002.00
2022-12-15T06:01:15.916Z,97002.00
2022-12-15T06:03:45.294Z,96993.00
2022-12-15T06:06:14.262Z,97001.00
2022-12-15T06:08:44.143Z,97005.00
2022-12-15T06:11:13.262Z,97015.00
2022-12-15T06:13:41.235Z,97023.00
2022-12-15T06:16:13.405Z,97025.00
2022-12-15T06:18:42.591Z,97035.00
2022-12-15T06:21:12.946Z,97028.00
2022-12-15T06:23:41.352Z,97026.00
2022-12-15T06:26:10.392Z,97020.00
2022-12-15T06:28:38.121Z,97022.00
2022-12-15T06:31:07.913Z,97020.00
2022-12-15T06:33:36.470Z,97025.00
2022-12-15T06:36:05.101Z,97030.00
2022-12-15T06:38:35.057Z,97034.00
2022-12-15T06:41:04.780Z,97031.00
2022-12-15T06:43:34.004Z,97054.00
2022-12-15T06:46:02.459Z,97052.00
2022-12-15T06:48:30.263Z,97043.00
2022-12-15T06:51:02.997Z,97054.00
2022-12-15T06:53:31.063Z,97050.00
2022-12-15T06:56:03.009Z,97033.00
2022-12-15T06:58:30.758Z,97034.00
2022-12-15T07:00:58.629Z,97038.00
2022-12-15T07:03:26.402Z,97034.00
2022-12-15T07:06:03.420Z,97038.00
2022-12-15T07:08:35.369Z,97042.00
2022-12-15T07:11:10.064Z,97040.00
2022-12-15T07:13:37.751Z,97042.00
2022-12-15T07:16:07.699Z,97056.00
2022-12-15T07:18:35.521Z,97065.00
2022-12-15T07:21:04.403Z,97066.00
2022-12-15T07:23:53.585Z,97061.00
2022-12-15T07:26:21.177Z,97081.00
2022-12-15T07:28:48.816Z,97069.00
2022-12-15T07:31:16.571Z,97069.00
2022-12-15T07:33:44.546Z,97070.00
2022-12-15T07:36:12.230Z,97082.00
2022-12-15T07:38:39.968Z,97079.00
2022-12-15T07:41:09.032Z,97084.00
2022-12-15T07:43:38.714Z,97082.00
2022-12-15T07:46:07.432Z,97073.00
2022-12-15T07:48:36.044Z,97089.00
2022-12-15T07:51:12.308Z,97089.00
2022-12-15T07:53:45.106Z,97090.00
2022-12-15T07:56:12.956Z,97097.00
2022-12-15T07:58:41.993Z,97089.00
2022-12-15T08:01:12.611Z,97089.00
2022-12-15T08:03:41.453Z,97085.00
2022-12-15T08:06:11.484Z,97092.00
2022-12-15T08:08:39.927Z,97100.00
2022-12-15T08:11:09.064Z,97088.00
2022-12-15T08:14:01.940Z,97087.00
2022-12-15T08:16:27.120Z,97092.00
2022-12-15T08:18:57.363Z,97106.00
2022-12-15T08:21:25.412Z,97116.00
2022-12-15T08:23:53.263Z,97112.00
2022-12-15T08:26:25.167Z,97114.00
2022-12-15T08:28:56.062Z,97127.00
2022-12-15T08:31:26.002Z,97126.00
2022-12-15T08:33:54.417Z,97135.00
2022-12-15T08:36:22.114Z,97118.00
2022-12-15T08:38:50.429Z,97122.00
2022-12-15T08:41:20.903Z,97126.00
2022-12-15T08:43:49.867Z,97135.00
2022-12-15T08:46:18.735Z,97134.00
2022-12-15T08:48:48.289Z,97141.00
2022-12-15T08:51:17.023Z,97131.00
2022-12-15T08:53:45.420Z,97146.00
2022-12-15T08:56:17.010Z,97143.00
2022-12-15T08:58:45.189Z,97137.00
2022-12-15T09:01:22.160Z,97142.00
2022-12-15T09:03:53.888Z,97155.00
2022-12-15T09:06:24.566Z,97157.00
2022-12-15T09:08:56.440Z,97155.00
2022-12-15T09:11:24.848Z,97161.00
2022-12-15T09:13:53.478Z,97151.00
2022-12-15T09:16:22.330Z,97158.00
2022-12-15T09:18:54.404Z,97161.00
2022-12-15T09:21:23.898Z,97171.00
2022-12-15T09:23:52.405Z,97177.00
2022-12-15T09:26:21.788Z,97175.00
2022-12-15T09:28:50.963Z,97184.00
2022-12-15T09:31:22.129Z,97183.00
2022-12-15T09:33:51.345Z,97173.00
2022-12-15T09:36:20.799Z,97164.00
2022-12-15T09:38:48.541Z,97157.00
2022-12-15T09:41:22.862Z,97149.00
2022-12-15T09:43:55.894Z,97154.00
2022-12-15T09:46:30.214Z,97141.00
2022-12-15T09:49:00.562Z,97148.00
2022-12-15T09:51:35.339Z,97152.00
2022-12-15T09:54:03.669Z,97146.00
2022-12-15T09:56:40.277Z,97135.00
2022-12-15T09:59:21.521Z,97124.00
2022-12-15T10:01:56.949Z,97130.00
2022-12-15T10:04:35.541Z,97131.00
2022-12-15T10:07:09.341Z,97140.00
2022-12-15T10:09:38.351Z,97144.00
2022-12-15T10:12:10.965Z,97140.00
2022-12-15T10:14:42.630Z,97140.00
2022-12-15T10:17:21.484Z,97141.00
2022-12-15T10:19:55.197Z,97142.00
2022-12-15T10:22:27.423Z,97135.00
2022-12-15T10:25:11.657Z,97126.00
2022-12-15T10:28:00.690Z,97122.00
2022-12-15T10:30:28.499Z,97119.00
2022-12-15T10:33:03.570Z,97123.00
2022-12-15T10:35:34.073Z,97123.00
2022-12-15T10:38:05.004Z,97114.00
2022-12-15T10:40:50.516Z,97105.00
2022-12-15T10:43:26.802Z,97103.00
2022-12-15T10:46:02.724Z,97098.00
2022-12-15T10:48:30.756Z,97094.00
2022-12-15T10:51:20.729Z,97098.00
2022-12-15T10:53:52.268Z,97098.00
2022-12-15T10:56:28.818Z,97090.00
2022-12-15T10:59:02.225Z,97088.00
2022-12-15T11:01:32.602Z,97078.00
2022-12-15T11:04:02.168Z,97073.00
2022-12-15T11:06:32.525Z,97077.00
2022-12-15T11:09:21.290Z,97081.00
2022-12-15T11:12:12.027Z,97086.00
2022-12-15T11:14:46.431Z,97084.00
2022-12-15T11:17:18.712Z,97086.00
2022-12-15T11:19:58.208Z,97078.00
2022-12-15T11:22:38.468Z,97074.00
2022-12-15T11:25:21.472Z,97073.00
2022-12-15T11:27:51.306Z,97080.00
2022-12-15T11:30:22.250Z,97079.00
2022-12-15T11:32:54.343Z,97083.00
2022-12-15T11:35:29.127Z,97083.00
2022-12-15T11:38:02.111Z,97082.00
2022-12-15T11:40:41.606Z,97068.00
2022-12-15T11:43:32.215Z,97067.00
2022-12-15T11:46:19.668Z,97069.00
2022-12-15T11:49:13.943Z,97069.00
2022-12-15T11:51:45.418Z,97064.00
2022-12-15T11:54:23.335Z,97062.00
2022-12-15T11:57:00.752Z,97065.00
2022-12-15T11:59:52.731Z,97063.00
2022-12-15T12:03:00.373Z,97044.00
2022-12-15T12:05:54.078Z,97041.00
2022-12-15T12:08:36.575Z,97037.00
2022-12-15T12:11:11.546Z,97030.00
2022-12-15T12:13:50.737Z,97036.00
2022-12-15T12:16:29.862Z,97040.00
2022-12-15T12:19:03.213Z,97046.00
2022-12-15T12:21:35.867Z,97058.00
2022-12-15T12:24:07.472Z,97053.00
2022-12-15T12:26:42.642Z,97052.00
2022-12-15T12:29:19.735Z,97050.00
2022-12-15T12:32:04.112Z,97041.00
2022-12-15T12:34:40.029Z,97042.00
2022-12-15T12:37:17.805Z,97038.00
2022-12-15T12:39:46.094Z,97043.00
2022-12-15T12:42:19.125Z,97045.00
2022-12-15T12:44:48.609Z,97047.00
2022-12-15T12:47:23.051Z,97047.00
2022-12-15T12:49:54.853Z,97034.00
2022-12-15T12:52:26.008Z,97024.00
2022-12-15T12:54:58.586Z,97025.00
2022-12-15T12:57:34.793Z,97013.00
2022-12-15T13:00:25.167Z,97014.00
2022-12-15T13:03:16.343Z,96992.00
2022-12-15T13:05:50.534Z,96988.00
2022-12-15T13:08:51.076Z,96977.00
2022-12-15T13:12:00.841Z,96977.00
2022-12-15T13:14:35.569Z,96964.00
2022-12-15T13:17:25.900Z,96963.00
2022-12-15T13:20:23.698Z,96951.00
2022-12-15T13:22:52.047Z,96948.00
2022-12-15T13:25:51.886Z,96949.00
2022-12-15T13:28:43.672Z,96958.00
2022-12-15T13:31:28.521Z,96963.00
2022-12-15T13:34:04.182Z,96969.00
2022-12-15T13:36:50.735Z,96967.00
2022-12-15T13:39:53.150Z,96974.00
2022-12-15T13:42:40.812Z,96976.00
2022-12-15T13:45:36.297Z,96979.00
2022-12-15T13:48:13.283Z,96979.00
2022-12-15T13:50:51.441Z,96970.00
2022-12-15T13:53:22.552Z,96969.00
2022-12-15T13:56:19.497Z,96969.00
2022-12-15T13:58:52.925Z,96972.00
2022-12-15T14:01:27.211Z,96962.00
2022-12-15T14:04:05.942Z,96966.00
2022-12-15T14:06:41.717Z,96961.00
2022-12-15T14:09:14.995Z,96959.00
2022-12-15T14:14:35.487Z,96955.00
2022-12-15T14:17:07.600Z,96956.00
2022-12-15T14:19:40.514Z,96951.00
2022-12-15T14:22:27.669Z,96959.00
2022-12-15T14:25:02.607Z,96960.00
2022-12-15T14:27:32.825Z,96958.00
2022-12-15T14:30:22.284Z,96953.00
2022-12-15T14:32:52.980Z,96955.00
2022-12-15T14:35:26.304Z,96948.00
2022-12-15T14:37:58.062Z,96962.00
2022-12-15T14:40:29.071Z,96964.00
2022-12-15T14:42:57.400Z,96965.00
2022-12-15T14:45:28.202Z,96968.00
2022-12-15T14:48:39.857Z,96966.00
2022-12-15T14:50:48.695Z,96965.00
2022-12-15T14:53:19.439Z,96960.00
2022-12-15T14:55:47.603Z,96954.00
2022-12-15T14:58:30.373Z,96966.00
2022-12-15T15:01:00.108Z,96969.00
2022-12-15T15:03:36.314Z,96970.00
2022-12-15T15:06:08.502Z,96964.00
2022-12-15T15:08:44.009Z,96956.00
2022-12-15T15:11:23.939Z,96947.00
2022-12-15T15:13:58.252Z,96947.00
2022-12-15T15:16:26.302Z,96924.00
2022-12-15T15:18:56.943Z,96922.00
2022-12-15T15:21:27.847Z,96921.00
2022-12-15T15:24:01.826Z,96921.00
2022-12-15T15:26:30.880Z,96924.00
2022-12-15T15:28:59.061Z,96918.00
2022-12-15T15:31:36.690Z,96919.00
2022-12-15T15:34:08.132Z,96918.00
2022-12-15T15:36:37.757Z,96920.00
2022-12-15T15:39:15.042Z,96923.00
2022-12-15T15:41:43.140Z,96927.00
2022-12-15T15:44:13.883Z,96936.00
2022-12-15T15:46:47.121Z,96940.00
2022-12-15T15:49:17.923Z,96933.00
2022-12-15T15:51:45.614Z,96939.00
2022-12-15T15:54:17.432Z,96944.00
2022-12-15T15:56:45.117Z,96949.00
2022-12-15T15:59:14.438Z,96948.00
2022-12-15T16:01:42.387Z,96952.00
2022-12-15T16:04:10.220Z,96954.00
2022-12-15T16:06:42.077Z,96953.00
2022-12-15T16:09:16.730Z,96948.00
2022-12-15T16:11:45.182Z,96947.00
2022-12-15T16:14:14.217Z,96947.00
2022-12-15T16:16:42.719Z,96948.00
2022-12-15T16:19:11.965Z,96944.00
2022-12-15T16:21:40.811Z,96949.00
2022-12-15T16:24:11.485Z,96949.00
2022-12-15T16:26:47.867Z,96947.00
2022-12-15T16:29:16.977Z,96942.00
2022-12-15T16:31:45.752Z,96928.00
2022-12-15T16:34:13.771Z,96923.00
2022-12-15T16:36:42.089Z,96921.00
2022-12-15T16:39:24.721Z,96920.00
2022-12-15T16:41:55.962Z,96917.00
2022-12-15T16:44:23.776Z,96917.00
2022-12-15T16:46:51.854Z,96920.00
2022-12-15T16:49:19.855Z,96908.00
2022-12-15T16:51:50.217Z,96916.00
2022-12-15T16:54:22.291Z,96912.00
2022-12-15T16:56:50.213Z,96906.00
2022-12-15T16:59:33.610Z,96918.00
2022-12-15T17:02:02.357Z,96915.00
2022-12-15T17:04:30.211Z,96904.00
2022-12-15T17:06:57.839Z,96899.00
2022-12-15T17:09:27.235Z,96895.00
2022-12-15T17:11:55.030Z,96891.00
2022-12-15T17:14:24.943Z,96894.00
2022-12-15T17:16:52.597Z,96903.00
2022-12-15T17:19:21.500Z,96901.00
2022-12-15T17:21:52.530Z,96908.00
2022-12-15T17:24:22.263Z,96913.00
2022-12-15T17:26:55.842Z,96918.00
2022-12-15T17:29:26.252Z,96924.00
2022-12-15T17:31:54.744Z,96937.00
2022-12-15T17:34:27.334Z,96924.00
2022-12-15T17:36:55.443Z,96918.00
2022-12-15T17:39:23.804Z,96913.00
2022-12-15T17:42:01.113Z,96914.00
2022-12-15T17:44:35.032Z,96919.00
2022-12-15T17:47:04.360Z,96915.00
2022-12-15T17:49:36.115Z,96908.00
2022-12-15T17:52:07.479Z,96900.00
2022-12-15T17:54:35.596Z,96905.00
2022-12-15T17:57:03.264Z,96896.00
2022-12-15T17:59:32.301Z,96890.00
2022-12-15T18:02:00.095Z,96873.00
2022-12-15T18:04:27.891Z,96874.00
2022-12-15T18:07:01.512Z,96870.00
2022-12-15T18:09:30.039Z,96860.00
2022-12-15T18:11:57.838Z,96855.00
2022-12-15T18:14:25.503Z,96855.00
2022-12-15T18:16:54.597Z,96848.00
2022-12-15T18:19:23.294Z,96838.00
2022-12-15T18:21:50.960Z,96839.00
2022-12-15T18:24:21.530Z,96846.00
2022-12-15T18:26:49.209Z,96843.00
2022-12-15T18:29:18.478Z,96847.00
2022-12-15T18:31:48.267Z,96848.00
2022-12-15T18:34:21.085Z,96850.00
2022-12-15T18:36:50.307Z,96850.00
2022-12-15T18:39:20.118Z,96846.00
2022-12-15T18:41:49.081Z,96848.00
2022-12-15T18:44:22.683Z,96842.00
2022-12-15T18:46:50.505Z,96842.00
2022-12-15T18:49:20.184Z,96829.00
2022-12-15T18:51:48.124Z,96833.00
2022-12-15T18:54:17.678Z,96835.00
2022-12-15T18:56:45.476Z,96834.00
2022-12-15T18:59:15.683Z,96841.00
2022-12-15T19:01:44.149Z,96835.00
2022-12-15T19:04:12.285Z,96839.00
2022-12-15T19:06:41.808Z,96828.00
2022-12-15T19:09:15.177Z,96829.00
2022-12-15T19:12:03.599Z,96822.00
2022-12-15T19:14:44.022Z,96840.00
2022-12-15T19:17:32.536Z,96828.00
2022-12-15T19:20:17.907Z,96832.00
2022-12-15T19:22:48.603Z,96831.00
2022-12-15T19:25:25.576Z,96825.00
2022-12-15T19:27:58.900Z,96812.00
2022-12-15T19:30:28.281Z,96816.00
2022-12-15T19:32:56.609Z,96811.00
2022-12-15T19:35:24.834Z,96818.00
2022-12-15T19:37:55.912Z,96814.00
2022-12-15T19:40:27.777Z,96812.00
2022-12-15T19:42:55.848Z,96809.00
2022-12-15T19:45:26.087Z,96806.00
2022-12-15T19:47:54.124Z,96801.00
2022-12-15T19:50:24.511Z,96799.00
2022-12-15T19:52:57.646Z,96797.00
2022-12-15T19:55:28.066Z,96792.00
2022-12-15T19:57:55.849Z,96789.00
2022-12-15T20:00:24.810Z,96785.00
2022-12-15T20:02:54.702Z,96782.00
2022-12-15T20:05:23.295Z,96770.00
2022-12-15T20:07:54.135Z,96769.00
2022-12-15T20:10:29.363Z,96772.00
2022-12-15T20:13:00.007Z,96770.00
2022-12-15T20:15:27.707Z,96766.00
2022-12-15T20:17:56.874Z,96765.00
2022-12-15T20:20:27.058Z,96756.00
2022-12-15T20:22:58.672Z,96754.00
2022-12-15T20:25:28.120Z,96752.00
2022-12-15T20:27:56.269Z,96752.00
2022-12-15T20:30:26.533Z,96751.00
2022-12-15T20:32:54.360Z,96751.00
2022-12-15T20:35:23.171Z,96754.00
2022-12-15T20:37:52.499Z,96755.00
2022-12-15T20:40:24.829Z,96748.00
2022-12-15T20:42:52.963Z,96747.00
2022-12-15T20:45:22.472Z,96735.00
2022-12-15T20:47:52.531Z,96741.00
2022-12-15T20:50:25.754Z,96743.00
2022-12-15T20:52:54.970Z,96745.00
2022-12-15T20:55:24.182Z,96749.00
2022-12-15T20:57:52.236Z,96755.00
2022-12-15T21:00:20.839Z,96751.00
2022-12-15T21:02:48.946Z,96751.00
2022-12-15T21:05:18.838Z,96743.00
2022-12-15T21:07:46.955Z,96747.00
2022-12-15T21:10:16.288Z,96744.00
2022-12-15T21:12:47.492Z,96741.00
2022-12-15T21:15:16.913Z,96740.00
2022-12-15T21:17:45.411Z,96727.00
2022-12-15T21:20:14.643Z,96718.00
2022-12-15T21:22:42.921Z,96727.00
2022-12-15T21:25:20.633Z,96735.00
2022-12-15T21:27:49.638Z,96745.00
2022-12-15T21:30:20.463Z,96743.00
2022-12-15T21:32:48.617Z,96742.00
2022-12-15T21:35:17.949Z,96734.00
2022-12-15T21:37:48.074Z,96735.00
2022-12-15T21:40:20.770Z,96747.00
2022-12-15T21:42:51.054Z,96747.00
2022-12-15T21:45:21.156Z,96749.00
2022-12-15T21:48:07.271Z,96739.00
2022-12-15T21:50:36.547Z,96742.00
2022-12-15T21:53:06.527Z,96743.00
2022-12-15T21:55:34.566Z,96750.00
2022-12-15T21:58:03.571Z,96752.00
2022-12-15T22:00:31.303Z,96748.00
2022-12-15T22:02:59.056Z,96753.00
2022-12-15T22:05:30.339Z,96753.00
2022-12-15T22:07:59.495Z,96748.00
2022-12-15T22:10:27.530Z,96747.00
2022-12-15T22:12:59.540Z,96750.00
2022-12-15T22:15:30.049Z,96758.00
2022-12-15T22:17:57.900Z,96754.00
2022-12-15T22:20:26.431Z,96753.00
2022-12-15T22:22:54.219Z,96758.00
2022-12-15T22:25:24.954Z,96762.00
2022-12-15T22:27:54.750Z,96753.00
2022-12-15T22:30:25.071Z,96736.00
2022-12-15T22:32:54.349Z,96742.00
2022-12-15T22:35:23.800Z,96744.00
2022-12-15T22:37:53.876Z,96734.00
2022-12-15T22:40:24.105Z,96745.00
2022-12-15T22:42:56.175Z,96744.00
2022-12-15T22:45:24.892Z,96745.00
2022-12-15T22:47:55.148Z,96731.00
2022-12-15T22:50:26.346Z,96723.00
2022-12-15T22:52:55.123Z,96715.00
2022-12-15T22:55:24.231Z,96715.00
2022-12-15T22:57:57.933Z,96724.00
2022-12-15T23:00:26.139Z,96714.00
2022-12-15T23:02:55.488Z,96713.00
2022-12-15T23:05:23.307Z,96717.00
2022-12-15T23:07:51.251Z,96721.00
2022-12-15T23:10:38.245Z,96719.00
2022-12-15T23:13:06.428Z,96720.00
2022-12-15T23:15:52.321Z,96718.00
2022-12-15T23:18:21.519Z,96721.00
2022-12-15T23:20:51.550Z,96722.00
2022-12-15T23:23:19.603Z,96722.00
2022-12-15T23:25:47.439Z,96722.00
2022-12-15T23:28:15.164Z,96719.00
2022-12-15T23:30:42.814Z,96718.00
2022-12-15T23:33:10.514Z,96712.00
2022-12-15T23:35:41.793Z,96722.00
2022-12-15T23:38:09.437Z,96718.00
2022-12-15T23:40:37.138Z,96720.00
2022-12-15T23:43:04.911Z,96717.00
2022-12-15T23:45:32.601Z,96715.00
2022-12-15T23:48:00.227Z,96715.00
2022-12-15T23:50:27.953Z,96703.00
2022-12-15T23:52:56.967Z,96714.00
2022-12-15T23:55:24.623Z,96708.00
2022-12-15T23:57:52.300Z,96708.00
